sensor_id;sensor_type;location;lat;lon;timestamp;P1;durP1;ratioP1;P2;durP2;ratioP2
39728;SDS011;25402;42.004;23.088;2023-02-22T00:00:56;28.35;;;13.75;;
39728;SDS011;25402;42.004;23.088;2023-02-22T00:03:28;29.52;;;12.25;;
39728;SDS011;25402;42.004;23.088;2023-02-22T00:05:58;23.60;;;12.18;;
39728;SDS011;25402;42.004;23.088;2023-02-22T00:08:27;28.42;;;13.80;;
39728;SDS011;25402;42.004;23.088;2023-02-22T00:10:54;30.83;;;15.00;;
39728;SDS011;25402;42.004;23.088;2023-02-22T00:13:21;33.13;;;14.10;;
39728;SDS011;25402;42.004;23.088;2023-02-22T00:15:48;32.28;;;14.38;;
39728;SDS011;25402;42.004;23.088;2023-02-22T00:18:16;28.90;;;14.45;;
39728;SDS011;25402;42.004;23.088;2023-02-22T00:20:44;31.95;;;14.20;;
39728;SDS011;25402;42.004;23.088;2023-02-22T00:23:12;32.53;;;15.23;;
39728;SDS011;25402;42.004;23.088;2023-02-22T00:25:39;30.15;;;14.15;;
39728;SDS011;25402;42.004;23.088;2023-02-22T00:28:06;28.00;;;13.35;;
39728;SDS011;25402;42.004;23.088;2023-02-22T00:30:32;30.42;;;13.55;;
39728;SDS011;25402;42.004;23.088;2023-02-22T00:32:59;32.15;;;14.00;;
39728;SDS011;25402;42.004;23.088;2023-02-22T00:35:26;29.67;;;14.07;;
39728;SDS011;25402;42.004;23.088;2023-02-22T00:37:55;34.95;;;14.05;;
39728;SDS011;25402;42.004;23.088;2023-02-22T00:40:22;30.38;;;14.38;;
39728;SDS011;25402;42.004;23.088;2023-02-22T00:42:49;29.88;;;14.30;;
39728;SDS011;25402;42.004;23.088;2023-02-22T00:45:16;36.30;;;15.30;;
39728;SDS011;25402;42.004;23.088;2023-02-22T00:47:43;32.85;;;15.27;;
39728;SDS011;25402;42.004;23.088;2023-02-22T00:50:10;37.25;;;15.10;;
39728;SDS011;25402;42.004;23.088;2023-02-22T00:52:37;33.85;;;15.27;;
39728;SDS011;25402;42.004;23.088;2023-02-22T00:55:06;30.90;;;13.80;;
39728;SDS011;25402;42.004;23.088;2023-02-22T00:57:33;32.78;;;14.05;;
39728;SDS011;25402;42.004;23.088;2023-02-22T01:00:00;29.50;;;14.30;;
39728;SDS011;25402;42.004;23.088;2023-02-22T01:02:36;33.05;;;14.30;;
39728;SDS011;25402;42.004;23.088;2023-02-22T01:05:02;31.58;;;14.23;;
39728;SDS011;25402;42.004;23.088;2023-02-22T01:07:29;31.83;;;14.65;;
39728;SDS011;25402;42.004;23.088;2023-02-22T01:09:56;31.77;;;15.15;;
39728;SDS011;25402;42.004;23.088;2023-02-22T01:12:24;31.15;;;14.70;;
39728;SDS011;25402;42.004;23.088;2023-02-22T01:14:51;27.27;;;13.35;;
39728;SDS011;25402;42.004;23.088;2023-02-22T01:17:21;28.30;;;13.25;;
39728;SDS011;25402;42.004;23.088;2023-02-22T01:19:47;30.13;;;13.13;;
39728;SDS011;25402;42.004;23.088;2023-02-22T01:22:14;33.35;;;13.88;;
39728;SDS011;25402;42.004;23.088;2023-02-22T01:24:40;31.42;;;13.70;;
39728;SDS011;25402;42.004;23.088;2023-02-22T01:27:07;28.02;;;13.13;;
39728;SDS011;25402;42.004;23.088;2023-02-22T01:29:36;29.90;;;13.65;;
39728;SDS011;25402;42.004;23.088;2023-02-22T01:32:03;34.20;;;14.15;;
39728;SDS011;25402;42.004;23.088;2023-02-22T01:34:31;27.60;;;13.70;;
39728;SDS011;25402;42.004;23.088;2023-02-22T01:36:57;31.85;;;13.65;;
39728;SDS011;25402;42.004;23.088;2023-02-22T01:39:24;26.92;;;12.02;;
39728;SDS011;25402;42.004;23.088;2023-02-22T01:41:50;26.48;;;13.07;;
39728;SDS011;25402;42.004;23.088;2023-02-22T01:44:18;28.25;;;12.80;;
39728;SDS011;25402;42.004;23.088;2023-02-22T01:46:47;33.70;;;13.18;;
39728;SDS011;25402;42.004;23.088;2023-02-22T01:49:13;28.65;;;13.43;;
39728;SDS011;25402;42.004;23.088;2023-02-22T01:51:41;25.95;;;12.57;;
39728;SDS011;25402;42.004;23.088;2023-02-22T01:54:09;27.58;;;12.80;;
39728;SDS011;25402;42.004;23.088;2023-02-22T01:56:38;26.98;;;12.35;;
39728;SDS011;25402;42.004;23.088;2023-02-22T01:59:08;41.22;;;13.63;;
39728;SDS011;25402;42.004;23.088;2023-02-22T02:01:35;36.20;;;13.70;;
39728;SDS011;25402;42.004;23.088;2023-02-22T02:04:05;30.52;;;12.95;;
39728;SDS011;25402;42.004;23.088;2023-02-22T02:06:32;28.25;;;13.07;;
39728;SDS011;25402;42.004;23.088;2023-02-22T02:09:01;31.88;;;13.82;;
39728;SDS011;25402;42.004;23.088;2023-02-22T02:11:28;38.28;;;13.32;;
39728;SDS011;25402;42.004;23.088;2023-02-22T02:13:56;30.40;;;12.50;;
39728;SDS011;25402;42.004;23.088;2023-02-22T02:16:23;33.65;;;13.43;;
39728;SDS011;25402;42.004;23.088;2023-02-22T02:18:51;33.65;;;13.60;;
39728;SDS011;25402;42.004;23.088;2023-02-22T02:21:27;28.67;;;12.52;;
39728;SDS011;25402;42.004;23.088;2023-02-22T02:24:09;30.58;;;12.85;;
39728;SDS011;25402;42.004;23.088;2023-02-22T02:26:53;29.70;;;12.57;;
39728;SDS011;25402;42.004;23.088;2023-02-22T02:29:29;29.48;;;13.07;;
39728;SDS011;25402;42.004;23.088;2023-02-22T02:32:06;30.10;;;12.93;;
39728;SDS011;25402;42.004;23.088;2023-02-22T02:34:38;28.63;;;12.15;;
39728;SDS011;25402;42.004;23.088;2023-02-22T02:37:08;28.10;;;11.50;;
39728;SDS011;25402;42.004;23.088;2023-02-22T02:39:38;24.65;;;11.50;;
39728;SDS011;25402;42.004;23.088;2023-02-22T02:42:07;27.65;;;11.80;;
39728;SDS011;25402;42.004;23.088;2023-02-22T02:44:36;26.75;;;11.90;;
39728;SDS011;25402;42.004;23.088;2023-02-22T02:47:08;25.23;;;12.80;;
39728;SDS011;25402;42.004;23.088;2023-02-22T02:49:38;25.13;;;12.02;;
39728;SDS011;25402;42.004;23.088;2023-02-22T02:52:07;28.52;;;11.32;;
39728;SDS011;25402;42.004;23.088;2023-02-22T02:54:36;31.00;;;11.85;;
39728;SDS011;25402;42.004;23.088;2023-02-22T02:57:04;31.13;;;11.70;;
39728;SDS011;25402;42.004;23.088;2023-02-22T02:59:32;42.60;;;12.73;;
39728;SDS011;25402;42.004;23.088;2023-02-22T03:04:47;28.58;;;12.18;;
39728;SDS011;25402;42.004;23.088;2023-02-22T03:07:27;30.33;;;12.40;;
39728;SDS011;25402;42.004;23.088;2023-02-22T03:10:00;33.45;;;12.13;;
39728;SDS011;25402;42.004;23.088;2023-02-22T03:12:33;39.17;;;12.93;;
39728;SDS011;25402;42.004;23.088;2023-02-22T03:15:03;26.00;;;11.55;;
39728;SDS011;25402;42.004;23.088;2023-02-22T03:17:39;29.38;;;12.13;;
39728;SDS011;25402;42.004;23.088;2023-02-22T03:20:10;29.33;;;12.48;;
39728;SDS011;25402;42.004;23.088;2023-02-22T03:22:39;28.27;;;12.85;;
39728;SDS011;25402;42.004;23.088;2023-02-22T03:25:10;28.73;;;13.38;;
39728;SDS011;25402;42.004;23.088;2023-02-22T03:27:40;32.85;;;12.95;;
39728;SDS011;25402;42.004;23.088;2023-02-22T03:30:09;25.48;;;12.65;;
39728;SDS011;25402;42.004;23.088;2023-02-22T03:32:37;26.85;;;12.20;;
39728;SDS011;25402;42.004;23.088;2023-02-22T03:35:06;24.67;;;11.57;;
39728;SDS011;25402;42.004;23.088;2023-02-22T03:37:36;27.98;;;12.57;;
39728;SDS011;25402;42.004;23.088;2023-02-22T03:40:04;28.55;;;13.05;;
39728;SDS011;25402;42.004;23.088;2023-02-22T03:45:05;31.10;;;12.77;;
39728;SDS011;25402;42.004;23.088;2023-02-22T03:47:34;30.05;;;12.82;;
39728;SDS011;25402;42.004;23.088;2023-02-22T03:50:04;34.70;;;13.27;;
39728;SDS011;25402;42.004;23.088;2023-02-22T03:52:33;32.17;;;13.02;;
39728;SDS011;25402;42.004;23.088;2023-02-22T03:55:01;47.47;;;18.38;;
39728;SDS011;25402;42.004;23.088;2023-02-22T03:57:30;42.47;;;17.73;;
39728;SDS011;25402;42.004;23.088;2023-02-22T03:59:58;30.88;;;14.80;;
39728;SDS011;25402;42.004;23.088;2023-02-22T04:02:24;44.67;;;13.80;;
39728;SDS011;25402;42.004;23.088;2023-02-22T04:04:51;33.10;;;13.48;;
39728;SDS011;25402;42.004;23.088;2023-02-22T04:07:17;30.50;;;12.73;;
39728;SDS011;25402;42.004;23.088;2023-02-22T04:09:45;28.08;;;12.60;;
39728;SDS011;25402;42.004;23.088;2023-02-22T04:12:13;28.15;;;11.85;;
39728;SDS011;25402;42.004;23.088;2023-02-22T04:14:40;39.75;;;11.32;;
39728;SDS011;25402;42.004;23.088;2023-02-22T04:17:06;26.17;;;11.18;;
39728;SDS011;25402;42.004;23.088;2023-02-22T04:19:33;75.30;;;12.77;;
39728;SDS011;25402;42.004;23.088;2023-02-22T04:22:00;74.90;;;12.63;;
39728;SDS011;25402;42.004;23.088;2023-02-22T04:24:26;40.92;;;11.27;;
39728;SDS011;25402;42.004;23.088;2023-02-22T04:26:53;33.85;;;13.45;;
39728;SDS011;25402;42.004;23.088;2023-02-22T04:29:21;30.23;;;11.85;;
39728;SDS011;25402;42.004;23.088;2023-02-22T04:31:48;30.30;;;11.20;;
39728;SDS011;25402;42.004;23.088;2023-02-22T04:34:14;28.65;;;11.75;;
39728;SDS011;25402;42.004;23.088;2023-02-22T04:36:41;25.15;;;11.35;;
39728;SDS011;25402;42.004;23.088;2023-02-22T04:39:08;25.98;;;11.13;;
39728;SDS011;25402;42.004;23.088;2023-02-22T04:41:35;23.13;;;10.35;;
39728;SDS011;25402;42.004;23.088;2023-02-22T04:44:01;23.75;;;10.70;;
39728;SDS011;25402;42.004;23.088;2023-02-22T04:46:29;33.30;;;11.45;;
39728;SDS011;25402;42.004;23.088;2023-02-22T04:48:56;27.10;;;11.45;;
39728;SDS011;25402;42.004;23.088;2023-02-22T04:51:23;20.58;;;10.07;;
39728;SDS011;25402;42.004;23.088;2023-02-22T04:53:49;33.00;;;11.32;;
39728;SDS011;25402;42.004;23.088;2023-02-22T04:56:16;27.45;;;11.20;;
39728;SDS011;25402;42.004;23.088;2023-02-22T04:58:42;42.25;;;18.20;;
39728;SDS011;25402;42.004;23.088;2023-02-22T05:01:09;35.13;;;14.65;;
39728;SDS011;25402;42.004;23.088;2023-02-22T05:03:37;27.33;;;11.20;;
39728;SDS011;25402;42.004;23.088;2023-02-22T05:06:04;15.65;;;8.13;;
39728;SDS011;25402;42.004;23.088;2023-02-22T05:08:30;22.95;;;7.90;;
39728;SDS011;25402;42.004;23.088;2023-02-22T05:10:57;41.20;;;10.82;;
39728;SDS011;25402;42.004;23.088;2023-02-22T05:13:24;20.42;;;8.45;;
39728;SDS011;25402;42.004;23.088;2023-02-22T05:15:50;25.00;;;10.43;;
39728;SDS011;25402;42.004;23.088;2023-02-22T05:18:17;21.30;;;9.85;;
39728;SDS011;25402;42.004;23.088;2023-02-22T05:20:45;22.52;;;9.43;;
39728;SDS011;25402;42.004;23.088;2023-02-22T05:23:11;19.85;;;10.32;;
39728;SDS011;25402;42.004;23.088;2023-02-22T05:25:38;29.38;;;11.00;;
39728;SDS011;25402;42.004;23.088;2023-02-22T05:28:06;26.63;;;10.75;;
39728;SDS011;25402;42.004;23.088;2023-02-22T05:30:34;29.95;;;12.80;;
39728;SDS011;25402;42.004;23.088;2023-02-22T05:33:03;33.08;;;11.57;;
39728;SDS011;25402;42.004;23.088;2023-02-22T05:35:30;40.80;;;11.25;;
39728;SDS011;25402;42.004;23.088;2023-02-22T05:37:58;32.58;;;11.73;;
39728;SDS011;25402;42.004;23.088;2023-02-22T05:40:27;30.13;;;11.55;;
39728;SDS011;25402;42.004;23.088;2023-02-22T05:42:54;29.77;;;12.68;;
39728;SDS011;25402;42.004;23.088;2023-02-22T05:45:22;22.92;;;12.93;;
39728;SDS011;25402;42.004;23.088;2023-02-22T05:47:49;51.63;;;24.15;;
39728;SDS011;25402;42.004;23.088;2023-02-22T05:50:16;52.58;;;19.27;;
39728;SDS011;25402;42.004;23.088;2023-02-22T05:52:43;71.30;;;17.58;;
39728;SDS011;25402;42.004;23.088;2023-02-22T05:55:13;56.00;;;18.35;;
39728;SDS011;25402;42.004;23.088;2023-02-22T05:57:40;68.55;;;19.50;;
39728;SDS011;25402;42.004;23.088;2023-02-22T06:00:08;62.53;;;20.55;;
39728;SDS011;25402;42.004;23.088;2023-02-22T06:02:35;55.42;;;18.20;;
39728;SDS011;25402;42.004;23.088;2023-02-22T06:05:02;49.38;;;16.63;;
39728;SDS011;25402;42.004;23.088;2023-02-22T06:07:29;58.00;;;16.75;;
39728;SDS011;25402;42.004;23.088;2023-02-22T06:09:55;44.05;;;15.68;;
39728;SDS011;25402;42.004;23.088;2023-02-22T06:12:23;38.63;;;15.48;;
39728;SDS011;25402;42.004;23.088;2023-02-22T06:14:50;35.75;;;14.50;;
39728;SDS011;25402;42.004;23.088;2023-02-22T06:17:16;45.97;;;14.68;;
39728;SDS011;25402;42.004;23.088;2023-02-22T06:19:43;38.20;;;15.18;;
39728;SDS011;25402;42.004;23.088;2023-02-22T06:22:13;35.78;;;15.02;;
39728;SDS011;25402;42.004;23.088;2023-02-22T06:24:40;38.58;;;16.65;;
39728;SDS011;25402;42.004;23.088;2023-02-22T06:27:11;35.00;;;16.17;;
39728;SDS011;25402;42.004;23.088;2023-02-22T06:29:39;46.42;;;17.92;;
39728;SDS011;25402;42.004;23.088;2023-02-22T06:32:09;62.63;;;18.02;;
39728;SDS011;25402;42.004;23.088;2023-02-22T06:34:36;44.92;;;17.75;;
39728;SDS011;25402;42.004;23.088;2023-02-22T06:37:02;70.45;;;17.65;;
39728;SDS011;25402;42.004;23.088;2023-02-22T06:39:29;43.67;;;16.45;;
39728;SDS011;25402;42.004;23.088;2023-02-22T06:41:55;34.45;;;16.63;;
39728;SDS011;25402;42.004;23.088;2023-02-22T06:44:23;39.50;;;17.60;;
39728;SDS011;25402;42.004;23.088;2023-02-22T06:46:51;31.23;;;14.70;;
39728;SDS011;25402;42.004;23.088;2023-02-22T06:49:18;30.60;;;14.48;;
39728;SDS011;25402;42.004;23.088;2023-02-22T06:51:45;34.45;;;13.38;;
39728;SDS011;25402;42.004;23.088;2023-02-22T06:54:12;31.55;;;14.77;;
39728;SDS011;25402;42.004;23.088;2023-02-22T06:56:39;28.90;;;15.05;;
39728;SDS011;25402;42.004;23.088;2023-02-22T06:59:05;59.35;;;26.02;;
39728;SDS011;25402;42.004;23.088;2023-02-22T07:01:32;39.25;;;18.10;;
39728;SDS011;25402;42.004;23.088;2023-02-22T07:04:02;40.35;;;18.08;;
39728;SDS011;25402;42.004;23.088;2023-02-22T07:06:28;37.47;;;17.40;;
39728;SDS011;25402;42.004;23.088;2023-02-22T07:08:55;53.78;;;20.55;;
39728;SDS011;25402;42.004;23.088;2023-02-22T07:11:22;41.42;;;17.60;;
39728;SDS011;25402;42.004;23.088;2023-02-22T07:13:49;43.42;;;17.42;;
39728;SDS011;25402;42.004;23.088;2023-02-22T07:16:15;38.30;;;17.02;;
39728;SDS011;25402;42.004;23.088;2023-02-22T07:18:42;40.20;;;16.52;;
39728;SDS011;25402;42.004;23.088;2023-02-22T07:21:11;41.60;;;15.77;;
39728;SDS011;25402;42.004;23.088;2023-02-22T07:23:38;60.60;;;16.77;;
39728;SDS011;25402;42.004;23.088;2023-02-22T07:26:05;40.88;;;17.52;;
39728;SDS011;25402;42.004;23.088;2023-02-22T07:28:32;46.90;;;16.73;;
39728;SDS011;25402;42.004;23.088;2023-02-22T07:30:59;39.00;;;15.52;;
39728;SDS011;25402;42.004;23.088;2023-02-22T07:33:25;37.90;;;14.50;;
39728;SDS011;25402;42.004;23.088;2023-02-22T07:35:52;53.15;;;14.43;;
39728;SDS011;25402;42.004;23.088;2023-02-22T07:38:20;26.00;;;12.48;;
39728;SDS011;25402;42.004;23.088;2023-02-22T07:40:46;73.95;;;12.88;;
39728;SDS011;25402;42.004;23.088;2023-02-22T07:43:14;32.67;;;10.85;;
39728;SDS011;25402;42.004;23.088;2023-02-22T07:45:41;24.95;;;12.02;;
39728;SDS011;25402;42.004;23.088;2023-02-22T07:48:07;30.52;;;11.68;;
39728;SDS011;25402;42.004;23.088;2023-02-22T07:50:34;34.75;;;12.25;;
39728;SDS011;25402;42.004;23.088;2023-02-22T07:53:01;24.77;;;11.75;;
39728;SDS011;25402;42.004;23.088;2023-02-22T07:55:30;28.73;;;11.68;;
39728;SDS011;25402;42.004;23.088;2023-02-22T07:57:57;31.15;;;11.48;;
39728;SDS011;25402;42.004;23.088;2023-02-22T08:00:25;24.52;;;12.43;;
39728;SDS011;25402;42.004;23.088;2023-02-22T08:02:52;27.08;;;12.38;;
39728;SDS011;25402;42.004;23.088;2023-02-22T08:05:19;54.53;;;26.67;;
39728;SDS011;25402;42.004;23.088;2023-02-22T08:07:45;60.17;;;24.70;;
39728;SDS011;25402;42.004;23.088;2023-02-22T08:10:13;67.32;;;30.67;;
39728;SDS011;25402;42.004;23.088;2023-02-22T08:12:43;61.28;;;21.60;;
39728;SDS011;25402;42.004;23.088;2023-02-22T08:15:14;52.90;;;21.80;;
39728;SDS011;25402;42.004;23.088;2023-02-22T08:17:41;48.08;;;21.02;;
39728;SDS011;25402;42.004;23.088;2023-02-22T08:20:07;28.38;;;13.73;;
39728;SDS011;25402;42.004;23.088;2023-02-22T08:22:34;39.40;;;12.80;;
39728;SDS011;25402;42.004;23.088;2023-02-22T08:25:01;44.88;;;13.40;;
39728;SDS011;25402;42.004;23.088;2023-02-22T08:27:28;27.67;;;12.85;;
39728;SDS011;25402;42.004;23.088;2023-02-22T08:29:56;48.45;;;12.77;;
39728;SDS011;25402;42.004;23.088;2023-02-22T08:32:23;32.42;;;12.07;;
39728;SDS011;25402;42.004;23.088;2023-02-22T08:34:49;23.95;;;10.65;;
39728;SDS011;25402;42.004;23.088;2023-02-22T08:37:16;22.02;;;11.50;;
39728;SDS011;25402;42.004;23.088;2023-02-22T08:39:42;28.52;;;12.52;;
39728;SDS011;25402;42.004;23.088;2023-02-22T08:42:22;22.90;;;12.10;;
39728;SDS011;25402;42.004;23.088;2023-02-22T08:44:49;25.60;;;11.15;;
39728;SDS011;25402;42.004;23.088;2023-02-22T08:47:17;30.95;;;10.73;;
39728;SDS011;25402;42.004;23.088;2023-02-22T08:49:44;28.50;;;11.43;;
39728;SDS011;25402;42.004;23.088;2023-02-22T08:52:10;20.85;;;10.45;;
39728;SDS011;25402;42.004;23.088;2023-02-22T08:54:37;22.23;;;9.43;;
39728;SDS011;25402;42.004;23.088;2023-02-22T08:57:03;24.17;;;9.05;;
39728;SDS011;25402;42.004;23.088;2023-02-22T08:59:30;25.95;;;10.93;;
39728;SDS011;25402;42.004;23.088;2023-02-22T09:01:56;37.95;;;10.60;;
39728;SDS011;25402;42.004;23.088;2023-02-22T09:04:24;21.30;;;9.25;;
39728;SDS011;25402;42.004;23.088;2023-02-22T09:06:51;17.98;;;8.32;;
39728;SDS011;25402;42.004;23.088;2023-02-22T09:09:18;21.30;;;9.00;;
39728;SDS011;25402;42.004;23.088;2023-02-22T09:11:45;25.75;;;8.82;;
39728;SDS011;25402;42.004;23.088;2023-02-22T09:14:12;22.05;;;8.65;;
39728;SDS011;25402;42.004;23.088;2023-02-22T09:16:40;189.40;;;15.07;;
39728;SDS011;25402;42.004;23.088;2023-02-22T09:19:07;29.77;;;8.10;;
39728;SDS011;25402;42.004;23.088;2023-02-22T09:21:35;24.20;;;6.55;;
39728;SDS011;25402;42.004;23.088;2023-02-22T09:24:04;19.23;;;6.93;;
39728;SDS011;25402;42.004;23.088;2023-02-22T09:26:32;16.02;;;7.40;;
39728;SDS011;25402;42.004;23.088;2023-02-22T09:28:59;23.98;;;8.77;;
39728;SDS011;25402;42.004;23.088;2023-02-22T09:31:26;19.15;;;8.73;;
39728;SDS011;25402;42.004;23.088;2023-02-22T09:33:52;20.23;;;8.07;;
39728;SDS011;25402;42.004;23.088;2023-02-22T09:36:19;17.75;;;8.50;;
39728;SDS011;25402;42.004;23.088;2023-02-22T09:38:48;30.10;;;8.63;;
39728;SDS011;25402;42.004;23.088;2023-02-22T09:41:15;19.83;;;8.63;;
39728;SDS011;25402;42.004;23.088;2023-02-22T09:43:44;21.10;;;8.95;;
39728;SDS011;25402;42.004;23.088;2023-02-22T09:46:25;24.85;;;9.48;;
39728;SDS011;25402;42.004;23.088;2023-02-22T09:48:55;20.85;;;8.80;;
39728;SDS011;25402;42.004;23.088;2023-02-22T09:51:24;26.33;;;8.48;;
39728;SDS011;25402;42.004;23.088;2023-02-22T09:53:54;26.70;;;9.40;;
39728;SDS011;25402;42.004;23.088;2023-02-22T09:56:22;19.98;;;7.93;;
39728;SDS011;25402;42.004;23.088;2023-02-22T09:58:50;23.63;;;8.68;;
39728;SDS011;25402;42.004;23.088;2023-02-22T10:01:21;38.05;;;8.43;;
39728;SDS011;25402;42.004;23.088;2023-02-22T10:03:51;24.30;;;8.63;;
39728;SDS011;25402;42.004;23.088;2023-02-22T10:08:50;26.42;;;8.07;;
39728;SDS011;25402;42.004;23.088;2023-02-22T10:11:25;18.20;;;7.10;;
39728;SDS011;25402;42.004;23.088;2023-02-22T10:13:54;19.70;;;7.18;;
39728;SDS011;25402;42.004;23.088;2023-02-22T10:16:24;15.68;;;6.38;;
39728;SDS011;25402;42.004;23.088;2023-02-22T10:19:00;22.83;;;7.25;;
39728;SDS011;25402;42.004;23.088;2023-02-22T10:21:46;39.60;;;9.20;;
39728;SDS011;25402;42.004;23.088;2023-02-22T10:24:22;30.40;;;11.43;;
39728;SDS011;25402;42.004;23.088;2023-02-22T10:26:54;24.90;;;8.43;;
39728;SDS011;25402;42.004;23.088;2023-02-22T10:29:24;38.85;;;15.25;;
39728;SDS011;25402;42.004;23.088;2023-02-22T10:31:55;44.67;;;8.32;;
39728;SDS011;25402;42.004;23.088;2023-02-22T10:34:23;31.38;;;11.95;;
39728;SDS011;25402;42.004;23.088;2023-02-22T10:36:53;21.45;;;7.22;;
39728;SDS011;25402;42.004;23.088;2023-02-22T10:39:24;28.48;;;9.07;;
39728;SDS011;25402;42.004;23.088;2023-02-22T10:41:54;25.75;;;8.07;;
39728;SDS011;25402;42.004;23.088;2023-02-22T10:44:21;21.50;;;7.13;;
39728;SDS011;25402;42.004;23.088;2023-02-22T10:46:49;33.65;;;8.65;;
39728;SDS011;25402;42.004;23.088;2023-02-22T10:49:18;20.77;;;8.00;;
39728;SDS011;25402;42.004;23.088;2023-02-22T10:51:47;24.73;;;7.10;;
39728;SDS011;25402;42.004;23.088;2023-02-22T10:54:18;35.90;;;7.72;;
39728;SDS011;25402;42.004;23.088;2023-02-22T10:56:47;25.92;;;7.93;;
39728;SDS011;25402;42.004;23.088;2023-02-22T10:59:26;24.50;;;7.32;;
39728;SDS011;25402;42.004;23.088;2023-02-22T11:01:53;23.98;;;7.40;;
39728;SDS011;25402;42.004;23.088;2023-02-22T11:04:20;20.77;;;6.85;;
39728;SDS011;25402;42.004;23.088;2023-02-22T11:06:48;27.88;;;7.55;;
39728;SDS011;25402;42.004;23.088;2023-02-22T11:09:15;46.42;;;8.73;;
39728;SDS011;25402;42.004;23.088;2023-02-22T11:11:44;24.00;;;7.05;;
39728;SDS011;25402;42.004;23.088;2023-02-22T11:14:11;17.52;;;7.38;;
39728;SDS011;25402;42.004;23.088;2023-02-22T11:16:41;23.58;;;6.72;;
39728;SDS011;25402;42.004;23.088;2023-02-22T11:19:15;23.02;;;7.13;;
39728;SDS011;25402;42.004;23.088;2023-02-22T11:21:45;31.13;;;7.43;;
39728;SDS011;25402;42.004;23.088;2023-02-22T11:24:12;34.60;;;7.35;;
39728;SDS011;25402;42.004;23.088;2023-02-22T11:26:40;25.20;;;6.57;;
39728;SDS011;25402;42.004;23.088;2023-02-22T11:29:11;20.42;;;7.25;;
39728;SDS011;25402;42.004;23.088;2023-02-22T11:31:44;19.02;;;6.80;;
39728;SDS011;25402;42.004;23.088;2023-02-22T11:34:26;24.25;;;7.80;;
39728;SDS011;25402;42.004;23.088;2023-02-22T11:36:54;46.30;;;7.88;;
39728;SDS011;25402;42.004;23.088;2023-02-22T11:39:22;39.50;;;7.10;;
39728;SDS011;25402;42.004;23.088;2023-02-22T11:41:49;61.97;;;8.13;;
39728;SDS011;25402;42.004;23.088;2023-02-22T11:44:20;31.40;;;7.18;;
39728;SDS011;25402;42.004;23.088;2023-02-22T11:46:50;32.97;;;7.10;;
39728;SDS011;25402;42.004;23.088;2023-02-22T11:49:19;29.85;;;7.18;;
39728;SDS011;25402;42.004;23.088;2023-02-22T11:51:49;34.25;;;8.27;;
39728;SDS011;25402;42.004;23.088;2023-02-22T11:54:22;35.90;;;8.07;;
39728;SDS011;25402;42.004;23.088;2023-02-22T11:56:58;20.52;;;7.65;;
39728;SDS011;25402;42.004;23.088;2023-02-22T11:59:30;36.45;;;7.80;;
39728;SDS011;25402;42.004;23.088;2023-02-22T12:02:04;30.23;;;7.03;;
39728;SDS011;25402;42.004;23.088;2023-02-22T12:04:44;37.25;;;7.10;;
39728;SDS011;25402;42.004;23.088;2023-02-22T12:07:26;30.15;;;7.05;;
39728;SDS011;25402;42.004;23.088;2023-02-22T12:09:57;28.30;;;6.90;;
39728;SDS011;25402;42.004;23.088;2023-02-22T12:12:27;30.85;;;6.88;;
39728;SDS011;25402;42.004;23.088;2023-02-22T12:14:59;28.42;;;6.47;;
39728;SDS011;25402;42.004;23.088;2023-02-22T12:17:32;26.52;;;6.80;;
39728;SDS011;25402;42.004;23.088;2023-02-22T12:20:02;40.17;;;7.90;;
39728;SDS011;25402;42.004;23.088;2023-02-22T12:22:34;37.90;;;7.23;;
39728;SDS011;25402;42.004;23.088;2023-02-22T12:25:03;25.95;;;7.25;;
39728;SDS011;25402;42.004;23.088;2023-02-22T12:27:32;26.70;;;7.00;;
39728;SDS011;25402;42.004;23.088;2023-02-22T12:30:04;33.47;;;6.82;;
39728;SDS011;25402;42.004;23.088;2023-02-22T12:32:35;30.00;;;7.05;;
39728;SDS011;25402;42.004;23.088;2023-02-22T12:35:09;32.78;;;6.68;;
39728;SDS011;25402;42.004;23.088;2023-02-22T12:37:42;21.95;;;5.45;;
39728;SDS011;25402;42.004;23.088;2023-02-22T12:40:12;20.90;;;5.50;;
39728;SDS011;25402;42.004;23.088;2023-02-22T12:42:44;18.38;;;5.20;;
39728;SDS011;25402;42.004;23.088;2023-02-22T12:45:13;15.65;;;4.68;;
39728;SDS011;25402;42.004;23.088;2023-02-22T12:47:47;21.63;;;4.72;;
39728;SDS011;25402;42.004;23.088;2023-02-22T12:50:16;19.48;;;4.20;;
39728;SDS011;25402;42.004;23.088;2023-02-22T12:52:45;18.08;;;4.50;;
39728;SDS011;25402;42.004;23.088;2023-02-22T12:55:15;20.70;;;4.95;;
39728;SDS011;25402;42.004;23.088;2023-02-22T12:57:45;23.83;;;5.07;;
39728;SDS011;25402;42.004;23.088;2023-02-22T13:02:42;15.02;;;5.05;;
39728;SDS011;25402;42.004;23.088;2023-02-22T13:05:13;18.80;;;7.15;;
39728;SDS011;25402;42.004;23.088;2023-02-22T13:07:43;27.13;;;8.10;;
39728;SDS011;25402;42.004;23.088;2023-02-22T13:12:43;49.25;;;14.88;;
39728;SDS011;25402;42.004;23.088;2023-02-22T13:15:14;25.45;;;8.23;;
39728;SDS011;25402;42.004;23.088;2023-02-22T13:17:45;42.40;;;7.15;;
39728;SDS011;25402;42.004;23.088;2023-02-22T13:20:17;17.65;;;3.97;;
39728;SDS011;25402;42.004;23.088;2023-02-22T13:22:49;6.32;;;3.22;;
39728;SDS011;25402;42.004;23.088;2023-02-22T13:25:19;7.05;;;3.15;;
39728;SDS011;25402;42.004;23.088;2023-02-22T13:27:49;11.60;;;3.40;;
39728;SDS011;25402;42.004;23.088;2023-02-22T13:30:19;12.13;;;3.33;;
39728;SDS011;25402;42.004;23.088;2023-02-22T13:32:51;11.20;;;3.72;;
39728;SDS011;25402;42.004;23.088;2023-02-22T13:35:25;13.95;;;3.75;;
39728;SDS011;25402;42.004;23.088;2023-02-22T13:41:05;13.55;;;3.20;;
39728;SDS011;25402;42.004;23.088;2023-02-22T13:46:01;11.32;;;3.45;;
39728;SDS011;25402;42.004;23.088;2023-02-22T13:48:36;13.00;;;3.40;;
39728;SDS011;25402;42.004;23.088;2023-02-22T13:51:15;13.57;;;3.60;;
39728;SDS011;25402;42.004;23.088;2023-02-22T13:53:49;10.38;;;2.88;;
39728;SDS011;25402;42.004;23.088;2023-02-22T13:56:19;9.32;;;2.70;;
39728;SDS011;25402;42.004;23.088;2023-02-22T13:58:48;13.57;;;3.15;;
39728;SDS011;25402;42.004;23.088;2023-02-22T14:01:35;7.25;;;2.88;;
39728;SDS011;25402;42.004;23.088;2023-02-22T14:04:20;4.75;;;2.67;;
39728;SDS011;25402;42.004;23.088;2023-02-22T14:06:49;9.30;;;3.03;;
39728;SDS011;25402;42.004;23.088;2023-02-22T14:09:16;12.75;;;3.80;;
39728;SDS011;25402;42.004;23.088;2023-02-22T14:11:44;8.27;;;3.00;;
39728;SDS011;25402;42.004;23.088;2023-02-22T14:14:12;9.80;;;3.60;;
39728;SDS011;25402;42.004;23.088;2023-02-22T14:16:41;6.63;;;3.50;;
39728;SDS011;25402;42.004;23.088;2023-02-22T14:19:12;9.02;;;3.78;;
39728;SDS011;25402;42.004;23.088;2023-02-22T14:24:22;7.22;;;3.17;;
39728;SDS011;25402;42.004;23.088;2023-02-22T14:26:59;9.27;;;3.13;;
39728;SDS011;25402;42.004;23.088;2023-02-22T14:29:27;7.70;;;3.20;;
39728;SDS011;25402;42.004;23.088;2023-02-22T14:31:57;13.07;;;3.25;;
39728;SDS011;25402;42.004;23.088;2023-02-22T14:34:37;6.85;;;3.40;;
39728;SDS011;25402;42.004;23.088;2023-02-22T14:37:07;5.50;;;2.80;;
39728;SDS011;25402;42.004;23.088;2023-02-22T14:39:36;11.43;;;3.10;;
39728;SDS011;25402;42.004;23.088;2023-02-22T14:42:05;12.88;;;3.08;;
39728;SDS011;25402;42.004;23.088;2023-02-22T14:44:35;10.00;;;2.83;;